»·PEaware :: USC243 KLAS-KBUR

USC243 :: KLAS-KBUR

FLIGHT INFORMATION

Flight Status: Arrived
Operator: Unknown
More flights by this operator :: More flights under this callsign
Pilot: Andy P. (22680)
Aircraft: GATES LEARJET LEARJET 35/36
(LJ35)
More flights by this aircraft type
Origin: KLAS McCarran Intl
United States
Destination: KBUR Bob Hope-Burbank
United States
More flights between these airports :: More routes between these airports
Route: BOACH8 WHIGG KREME JANNY5
File this flight plan on PilotEdge
Remarks:
Altitude:
(Current/Filed)
32,000ft
Speed:
(Current/Filed)
465kts
Departed: 27-May-19 01:16 PM
Arrived: 27-May-19 02:01 PM
Distance/Time
Traveled:
194nm/0:45
Distance/Time
To Go:
Arrived

Flight Plot

Page will automatically refresh every two minutes.

Flight plan parsing failed; only flown route is shown


Map Options




Map Legend


Flown Route
Filed Route
Departure Airport
Arrival Airport
Navaid (VOR, NDB)
Fix

Horizontal Profiles

Position Reports

Time Latitude Longitude Heading Altitude Ground
Speed
27-May-19 12:56 36.082928 -115.125612 90 2184ft 0kts
27-May-19 12:57 36.082928 -115.125612 90 2184ft 0kts
27-May-19 12:58 36.082928 -115.125612 90 2184ft 0kts
27-May-19 12:59 36.082928 -115.125612 90 2184ft 0kts
27-May-19 13:00 36.082928 -115.125612 90 2184ft 0kts
27-May-19 13:01 36.082928 -115.125612 90 2184ft 0kts
27-May-19 13:02 36.082928 -115.125612 90 2184ft 0kts
27-May-19 13:03 36.082928 -115.125612 90 2184ft 0kts
27-May-19 13:04 36.082928 -115.125612 90 2184ft 0kts
27-May-19 13:05 36.082928 -115.125612 90 2184ft 0kts
27-May-19 13:06 36.082928 -115.125612 90 2184ft 0kts
27-May-19 13:07 36.082928 -115.125612 90 2184ft 0kts
27-May-19 13:08 36.082928 -115.125612 90 2184ft 0kts
27-May-19 13:09 36.082928 -115.125612 90 2184ft 0kts
27-May-19 13:10 36.082928 -115.125612 90 2184ft 0kts
27-May-19 13:11 36.082452 -115.126286 210 2184ft 12kts
27-May-19 13:12 36.078323 -115.125947 106 2184ft 14kts
27-May-19 13:13 36.077554 -115.121593 138 2184ft 0kts
27-May-19 13:14 36.077429 -115.121456 139 2184ft 8kts
27-May-19 13:15 36.076347 -115.143524 271 2574ft 179kts
27-May-19 13:16 36.076710 -115.201938 268 4117ft 170kts
27-May-19 13:17 36.061468 -115.260337 201 7388ft 215kts
27-May-19 13:18 35.997807 -115.288529 205 11106ft 268kts
27-May-19 13:19 35.916507 -115.308418 189 14667ft 328kts
27-May-19 13:20 35.819543 -115.311341 177 18121ft 370kts
27-May-19 13:21 35.710366 -115.298539 178 20626ft 422kts
27-May-19 13:22 35.611346 -115.350404 244 23791ft 394kts
27-May-19 13:23 35.550646 -115.464744 235 26401ft 410kts
27-May-19 13:24 35.472007 -115.568933 230 28483ft 422kts
27-May-19 13:25 35.386750 -115.668485 230 30617ft 417kts
27-May-19 13:26 35.304241 -115.765786 230 31943ft 408kts
27-May-19 13:27 35.220517 -115.864691 230 31343ft 428kts
27-May-19 13:28 35.138482 -115.961062 230 29349ft 387kts
27-May-19 13:29 35.063801 -116.048723 231 27515ft 362kts
27-May-19 13:30 34.990984 -116.134136 231 25738ft 366kts
27-May-19 13:31 34.918805 -116.224372 242 23976ft 369kts
27-May-19 13:32 34.870470 -116.326627 237 24078ft 343kts
27-May-19 13:33 34.832881 -116.424569 260 24020ft 312kts
27-May-19 13:34 34.800117 -116.524328 252 23569ft 328kts
27-May-19 13:35 34.780452 -116.633475 268 22573ft 336kts
27-May-19 13:36 34.768972 -116.747768 267 21692ft 345kts
27-May-19 13:37 34.757553 -116.864229 267 20897ft 348kts
27-May-19 13:38 34.745653 -116.981853 267 20111ft 350kts
27-May-19 13:39 34.733735 -117.100431 267 19303ft 353kts
27-May-19 13:40 34.721382 -117.219620 267 18547ft 354kts
27-May-19 13:41 34.708902 -117.339458 266 17622ft 358kts
27-May-19 13:42 34.696245 -117.460057 266 16785ft 360kts
27-May-19 13:43 34.683412 -117.581156 266 15950ft 361kts
27-May-19 13:44 34.670537 -117.702497 266 15110ft 363kts
27-May-19 13:45 34.657524 -117.824552 265 14258ft 364kts
27-May-19 13:46 34.644220 -117.947526 265 12994ft 375kts
27-May-19 13:47 34.631816 -118.055550 263 11677ft 281kts
27-May-19 13:48 34.614231 -118.141190 258 10629ft 247kts
27-May-19 13:49 34.595658 -118.224831 257 9608ft 261kts
27-May-19 13:50 34.576760 -118.309396 257 8567ft 256kts
27-May-19 13:51 34.558693 -118.389832 257 8295ft 216kts
27-May-19 13:52 34.526919 -118.447629 201 7601ft 231kts
27-May-19 13:53 34.459354 -118.464917 192 6257ft 256kts
27-May-19 13:54 34.392987 -118.479776 191 5097ft 226kts
27-May-19 13:55 34.338417 -118.467892 146 4613ft 191kts
27-May-19 13:56 34.298920 -118.429032 137 3938ft 185kts
27-May-19 13:57 34.268080 -118.393490 139 2716ft 136kts
27-May-19 13:58 34.237120 -118.368202 161 1452ft 127kts
27-May-19 13:59 34.204866 -118.358415 168 724ft 86kts
27-May-19 14:00 34.198860 -118.359538 267 724ft 24kts
27-May-19 14:01 34.199616 -118.360705 93 724ft 0kts
27-May-19 14:02 34.199616 -118.360705 93 724ft 0kts
27-May-19 14:04 34.199616 -118.360705 93 724ft 0kts
27-May-19 14:05 34.199616 -118.360705 93 724ft 0kts
27-May-19 14:06 34.199616 -118.360705 93 724ft 0kts
27-May-19 14:07 34.199616 -118.360705 93 724ft 0kts
27-May-19 14:08 34.199616 -118.360705 93 724ft 0kts
27-May-19 14:09 34.199616 -118.360705 93 724ft 0kts
27-May-19 14:10 34.199616 -118.360705 93 724ft 0kts
27-May-19 14:11 34.199616 -118.360705 93 724ft 0kts
27-May-19 14:12 34.199616 -118.360705 93 724ft 0kts
27-May-19 14:13 34.199616 -118.360705 93 724ft 0kts
27-May-19 14:14 34.199616 -118.360705 93 724ft 0kts
27-May-19 14:15 34.199616 -118.360705 93 724ft 0kts

Navigation Log

Ident Type
Flight plan parsing failed, navigation log unavailable